sensor_id;sensor_type;location;lat;lon;timestamp;P1;durP1;ratioP1;P2;durP2;ratioP2
69226;SDS011;56334;52.398;7.552;2023-04-25T00:01:31;10.35;;;2.80;;
69226;SDS011;56334;52.398;7.552;2023-04-25T00:04:01;12.27;;;3.53;;
69226;SDS011;56334;52.398;7.552;2023-04-25T00:06:27;17.90;;;3.65;;
69226;SDS011;56334;52.398;7.552;2023-04-25T00:08:55;13.10;;;2.97;;
69226;SDS011;56334;52.398;7.552;2023-04-25T00:11:21;10.55;;;2.40;;
69226;SDS011;56334;52.398;7.552;2023-04-25T00:13:47;13.77;;;2.92;;
69226;SDS011;56334;52.398;7.552;2023-04-25T00:16:14;12.07;;;2.67;;
69226;SDS011;56334;52.398;7.552;2023-04-25T00:18:41;13.45;;;2.75;;
69226;SDS011;56334;52.398;7.552;2023-04-25T00:21:08;9.20;;;2.20;;
69226;SDS011;56334;52.398;7.552;2023-04-25T00:23:34;18.38;;;3.80;;
69226;SDS011;56334;52.398;7.552;2023-04-25T00:26:03;12.07;;;2.75;;
69226;SDS011;56334;52.398;7.552;2023-04-25T00:28:29;9.55;;;3.20;;
69226;SDS011;56334;52.398;7.552;2023-04-25T00:30:56;15.65;;;3.40;;
69226;SDS011;56334;52.398;7.552;2023-04-25T00:33:22;15.32;;;3.63;;
69226;SDS011;56334;52.398;7.552;2023-04-25T00:35:48;11.27;;;3.08;;
69226;SDS011;56334;52.398;7.552;2023-04-25T00:38:14;17.70;;;3.67;;
69226;SDS011;56334;52.398;7.552;2023-04-25T00:40:40;15.02;;;3.20;;
69226;SDS011;56334;52.398;7.552;2023-04-25T00:43:08;13.93;;;3.50;;
69226;SDS011;56334;52.398;7.552;2023-04-25T00:45:34;17.50;;;3.72;;
69226;SDS011;56334;52.398;7.552;2023-04-25T00:48:04;11.77;;;2.88;;
69226;SDS011;56334;52.398;7.552;2023-04-25T00:50:30;17.33;;;3.90;;
69226;SDS011;56334;52.398;7.552;2023-04-25T00:52:56;15.27;;;3.00;;
69226;SDS011;56334;52.398;7.552;2023-04-25T00:55:22;12.25;;;2.72;;
69226;SDS011;56334;52.398;7.552;2023-04-25T00:57:48;14.88;;;4.10;;
69226;SDS011;56334;52.398;7.552;2023-04-25T01:00:14;7.97;;;2.05;;
69226;SDS011;56334;52.398;7.552;2023-04-25T01:02:41;15.90;;;2.80;;
69226;SDS011;56334;52.398;7.552;2023-04-25T01:05:07;15.38;;;3.95;;
69226;SDS011;56334;52.398;7.552;2023-04-25T01:07:35;21.77;;;3.55;;
69226;SDS011;56334;52.398;7.552;2023-04-25T01:10:01;15.98;;;2.78;;
69226;SDS011;56334;52.398;7.552;2023-04-25T01:12:27;15.13;;;3.50;;
69226;SDS011;56334;52.398;7.552;2023-04-25T01:14:54;16.40;;;3.70;;
69226;SDS011;56334;52.398;7.552;2023-04-25T01:17:20;14.50;;;3.65;;
69226;SDS011;56334;52.398;7.552;2023-04-25T01:19:46;17.65;;;3.15;;
69226;SDS011;56334;52.398;7.552;2023-04-25T01:22:14;13.88;;;3.28;;
69226;SDS011;56334;52.398;7.552;2023-04-25T01:24:40;16.33;;;3.40;;
69226;SDS011;56334;52.398;7.552;2023-04-25T01:27:06;14.52;;;3.28;;
69226;SDS011;56334;52.398;7.552;2023-04-25T01:29:32;12.82;;;2.80;;
69226;SDS011;56334;52.398;7.552;2023-04-25T01:31:59;12.25;;;3.10;;
69226;SDS011;56334;52.398;7.552;2023-04-25T01:34:25;16.10;;;4.00;;
69226;SDS011;56334;52.398;7.552;2023-04-25T01:36:51;16.00;;;3.67;;
69226;SDS011;56334;52.398;7.552;2023-04-25T01:39:19;19.73;;;3.78;;
69226;SDS011;56334;52.398;7.552;2023-04-25T01:41:48;15.73;;;3.20;;
69226;SDS011;56334;52.398;7.552;2023-04-25T01:44:14;12.63;;;3.05;;
69226;SDS011;56334;52.398;7.552;2023-04-25T01:46:40;15.85;;;3.25;;
69226;SDS011;56334;52.398;7.552;2023-04-25T01:49:06;20.90;;;4.35;;
69226;SDS011;56334;52.398;7.552;2023-04-25T01:51:33;20.40;;;4.20;;
69226;SDS011;56334;52.398;7.552;2023-04-25T01:54:00;17.52;;;4.07;;
69226;SDS011;56334;52.398;7.552;2023-04-25T01:56:29;13.02;;;3.60;;
69226;SDS011;56334;52.398;7.552;2023-04-25T01:58:55;15.85;;;4.03;;
69226;SDS011;56334;52.398;7.552;2023-04-25T02:01:22;15.63;;;3.72;;
69226;SDS011;56334;52.398;7.552;2023-04-25T02:03:48;15.13;;;4.00;;
69226;SDS011;56334;52.398;7.552;2023-04-25T02:06:14;15.75;;;4.00;;
69226;SDS011;56334;52.398;7.552;2023-04-25T02:08:40;16.15;;;3.40;;
69226;SDS011;56334;52.398;7.552;2023-04-25T02:11:06;10.02;;;2.78;;
69226;SDS011;56334;52.398;7.552;2023-04-25T02:13:32;16.33;;;3.45;;
69226;SDS011;56334;52.398;7.552;2023-04-25T02:15:58;17.13;;;3.38;;
69226;SDS011;56334;52.398;7.552;2023-04-25T02:18:24;14.32;;;3.45;;
69226;SDS011;56334;52.398;7.552;2023-04-25T02:20:51;16.52;;;3.08;;
69226;SDS011;56334;52.398;7.552;2023-04-25T02:23:17;17.30;;;3.40;;
69226;SDS011;56334;52.398;7.552;2023-04-25T02:25:44;13.00;;;3.05;;
69226;SDS011;56334;52.398;7.552;2023-04-25T02:28:10;14.32;;;3.38;;
69226;SDS011;56334;52.398;7.552;2023-04-25T02:30:36;14.20;;;3.47;;
69226;SDS011;56334;52.398;7.552;2023-04-25T02:33:02;15.38;;;3.60;;
69226;SDS011;56334;52.398;7.552;2023-04-25T02:35:28;16.23;;;3.38;;
69226;SDS011;56334;52.398;7.552;2023-04-25T02:37:54;19.85;;;4.65;;
69226;SDS011;56334;52.398;7.552;2023-04-25T02:40:20;18.95;;;4.13;;
69226;SDS011;56334;52.398;7.552;2023-04-25T02:42:47;14.27;;;3.28;;
69226;SDS011;56334;52.398;7.552;2023-04-25T02:45:13;17.67;;;3.80;;
69226;SDS011;56334;52.398;7.552;2023-04-25T02:47:39;16.30;;;3.75;;
69226;SDS011;56334;52.398;7.552;2023-04-25T02:50:05;11.82;;;2.97;;
69226;SDS011;56334;52.398;7.552;2023-04-25T02:52:32;15.02;;;3.97;;
69226;SDS011;56334;52.398;7.552;2023-04-25T02:54:58;13.35;;;3.33;;
69226;SDS011;56334;52.398;7.552;2023-04-25T02:57:24;19.08;;;3.20;;
69226;SDS011;56334;52.398;7.552;2023-04-25T02:59:50;16.55;;;3.25;;
69226;SDS011;56334;52.398;7.552;2023-04-25T03:02:16;14.05;;;3.10;;
69226;SDS011;56334;52.398;7.552;2023-04-25T03:04:42;13.77;;;3.75;;
69226;SDS011;56334;52.398;7.552;2023-04-25T03:07:08;15.35;;;3.67;;
69226;SDS011;56334;52.398;7.552;2023-04-25T03:09:34;16.67;;;3.83;;
69226;SDS011;56334;52.398;7.552;2023-04-25T03:12:00;13.90;;;2.90;;
69226;SDS011;56334;52.398;7.552;2023-04-25T03:14:26;12.60;;;3.22;;
69226;SDS011;56334;52.398;7.552;2023-04-25T03:16:52;12.52;;;3.33;;
69226;SDS011;56334;52.398;7.552;2023-04-25T03:19:18;18.85;;;3.70;;
69226;SDS011;56334;52.398;7.552;2023-04-25T03:21:46;18.33;;;3.75;;
69226;SDS011;56334;52.398;7.552;2023-04-25T03:24:12;13.43;;;3.30;;
69226;SDS011;56334;52.398;7.552;2023-04-25T03:26:38;21.98;;;4.18;;
69226;SDS011;56334;52.398;7.552;2023-04-25T03:29:04;16.00;;;3.33;;
69226;SDS011;56334;52.398;7.552;2023-04-25T03:31:30;15.07;;;3.55;;
69226;SDS011;56334;52.398;7.552;2023-04-25T03:33:56;16.75;;;3.65;;
69226;SDS011;56334;52.398;7.552;2023-04-25T03:36:22;15.75;;;3.55;;
69226;SDS011;56334;52.398;7.552;2023-04-25T03:38:48;16.13;;;3.33;;
69226;SDS011;56334;52.398;7.552;2023-04-25T03:41:15;18.98;;;3.65;;
69226;SDS011;56334;52.398;7.552;2023-04-25T03:43:41;15.27;;;3.30;;
69226;SDS011;56334;52.398;7.552;2023-04-25T03:46:07;16.83;;;3.60;;
69226;SDS011;56334;52.398;7.552;2023-04-25T03:48:33;15.02;;;3.22;;
69226;SDS011;56334;52.398;7.552;2023-04-25T03:50:59;18.65;;;4.28;;
69226;SDS011;56334;52.398;7.552;2023-04-25T03:53:25;15.65;;;3.50;;
69226;SDS011;56334;52.398;7.552;2023-04-25T03:55:51;15.05;;;3.55;;
69226;SDS011;56334;52.398;7.552;2023-04-25T03:58:17;14.98;;;3.45;;
69226;SDS011;56334;52.398;7.552;2023-04-25T04:00:44;15.32;;;3.65;;
69226;SDS011;56334;52.398;7.552;2023-04-25T04:03:10;16.63;;;3.40;;
69226;SDS011;56334;52.398;7.552;2023-04-25T04:05:36;15.45;;;3.28;;
69226;SDS011;56334;52.398;7.552;2023-04-25T04:08:05;15.73;;;3.50;;
69226;SDS011;56334;52.398;7.552;2023-04-25T04:10:31;13.73;;;3.60;;
69226;SDS011;56334;52.398;7.552;2023-04-25T04:12:57;16.20;;;3.38;;
69226;SDS011;56334;52.398;7.552;2023-04-25T04:15:23;14.32;;;3.20;;
69226;SDS011;56334;52.398;7.552;2023-04-25T04:17:49;14.57;;;3.42;;
69226;SDS011;56334;52.398;7.552;2023-04-25T04:20:15;19.67;;;4.00;;
69226;SDS011;56334;52.398;7.552;2023-04-25T04:22:41;13.45;;;3.45;;
69226;SDS011;56334;52.398;7.552;2023-04-25T04:25:07;17.60;;;3.20;;
69226;SDS011;56334;52.398;7.552;2023-04-25T04:27:35;16.27;;;3.17;;
69226;SDS011;56334;52.398;7.552;2023-04-25T04:30:01;19.67;;;3.45;;
69226;SDS011;56334;52.398;7.552;2023-04-25T04:32:28;14.45;;;4.03;;
69226;SDS011;56334;52.398;7.552;2023-04-25T04:34:55;17.60;;;3.30;;
69226;SDS011;56334;52.398;7.552;2023-04-25T04:37:21;14.45;;;3.83;;
69226;SDS011;56334;52.398;7.552;2023-04-25T04:39:47;14.57;;;3.40;;
69226;SDS011;56334;52.398;7.552;2023-04-25T04:42:13;11.57;;;2.88;;
69226;SDS011;56334;52.398;7.552;2023-04-25T04:44:39;15.85;;;3.47;;
69226;SDS011;56334;52.398;7.552;2023-04-25T04:47:05;13.48;;;3.47;;
69226;SDS011;56334;52.398;7.552;2023-04-25T04:49:32;20.30;;;3.70;;
69226;SDS011;56334;52.398;7.552;2023-04-25T04:51:58;13.15;;;3.15;;
69226;SDS011;56334;52.398;7.552;2023-04-25T04:54:25;18.58;;;2.63;;
69226;SDS011;56334;52.398;7.552;2023-04-25T04:56:52;16.48;;;3.38;;
69226;SDS011;56334;52.398;7.552;2023-04-25T04:59:18;15.38;;;3.03;;
69226;SDS011;56334;52.398;7.552;2023-04-25T05:01:44;12.90;;;2.80;;
69226;SDS011;56334;52.398;7.552;2023-04-25T05:06:37;16.27;;;2.97;;
69226;SDS011;56334;52.398;7.552;2023-04-25T05:09:03;11.90;;;2.97;;
69226;SDS011;56334;52.398;7.552;2023-04-25T05:11:29;13.35;;;2.92;;
69226;SDS011;56334;52.398;7.552;2023-04-25T05:14:04;11.43;;;3.50;;
69226;SDS011;56334;52.398;7.552;2023-04-25T05:16:30;15.82;;;3.30;;
69226;SDS011;56334;52.398;7.552;2023-04-25T05:18:56;14.70;;;2.70;;
69226;SDS011;56334;52.398;7.552;2023-04-25T05:21:22;11.13;;;2.53;;
69226;SDS011;56334;52.398;7.552;2023-04-25T05:23:48;12.52;;;2.42;;
69226;SDS011;56334;52.398;7.552;2023-04-25T05:26:14;10.63;;;2.80;;
69226;SDS011;56334;52.398;7.552;2023-04-25T05:28:40;10.90;;;2.35;;
69226;SDS011;56334;52.398;7.552;2023-04-25T05:31:07;9.95;;;2.72;;
69226;SDS011;56334;52.398;7.552;2023-04-25T05:33:33;13.38;;;3.33;;
69226;SDS011;56334;52.398;7.552;2023-04-25T05:35:59;12.90;;;3.13;;
69226;SDS011;56334;52.398;7.552;2023-04-25T05:38:25;16.35;;;3.42;;
69226;SDS011;56334;52.398;7.552;2023-04-25T05:40:51;11.68;;;2.88;;
69226;SDS011;56334;52.398;7.552;2023-04-25T05:43:18;17.45;;;3.00;;
69226;SDS011;56334;52.398;7.552;2023-04-25T05:45:44;13.10;;;3.00;;
69226;SDS011;56334;52.398;7.552;2023-04-25T05:48:11;11.43;;;2.25;;
69226;SDS011;56334;52.398;7.552;2023-04-25T05:50:38;13.88;;;2.90;;
69226;SDS011;56334;52.398;7.552;2023-04-25T05:53:04;13.98;;;2.75;;
69226;SDS011;56334;52.398;7.552;2023-04-25T05:55:30;11.90;;;2.05;;
69226;SDS011;56334;52.398;7.552;2023-04-25T05:57:56;12.60;;;2.47;;
69226;SDS011;56334;52.398;7.552;2023-04-25T06:00:23;14.23;;;2.80;;
69226;SDS011;56334;52.398;7.552;2023-04-25T06:02:49;12.45;;;3.17;;
69226;SDS011;56334;52.398;7.552;2023-04-25T06:05:15;12.60;;;2.47;;
69226;SDS011;56334;52.398;7.552;2023-04-25T06:07:41;16.45;;;2.83;;
69226;SDS011;56334;52.398;7.552;2023-04-25T06:10:07;13.82;;;2.38;;
69226;SDS011;56334;52.398;7.552;2023-04-25T06:12:34;14.20;;;2.50;;
69226;SDS011;56334;52.398;7.552;2023-04-25T06:15:00;8.85;;;2.30;;
69226;SDS011;56334;52.398;7.552;2023-04-25T06:17:26;8.30;;;2.28;;
69226;SDS011;56334;52.398;7.552;2023-04-25T06:19:54;12.23;;;2.35;;
69226;SDS011;56334;52.398;7.552;2023-04-25T06:22:20;12.75;;;3.15;;
69226;SDS011;56334;52.398;7.552;2023-04-25T06:24:46;10.45;;;2.20;;
69226;SDS011;56334;52.398;7.552;2023-04-25T06:27:13;11.30;;;2.40;;
69226;SDS011;56334;52.398;7.552;2023-04-25T06:29:39;12.43;;;2.60;;
69226;SDS011;56334;52.398;7.552;2023-04-25T06:32:05;14.38;;;2.78;;
69226;SDS011;56334;52.398;7.552;2023-04-25T06:34:31;11.05;;;2.67;;
69226;SDS011;56334;52.398;7.552;2023-04-25T06:36:57;6.47;;;2.03;;
69226;SDS011;56334;52.398;7.552;2023-04-25T06:39:23;10.10;;;2.50;;
69226;SDS011;56334;52.398;7.552;2023-04-25T06:41:50;14.75;;;2.55;;
69226;SDS011;56334;52.398;7.552;2023-04-25T06:44:16;10.52;;;2.22;;
69226;SDS011;56334;52.398;7.552;2023-04-25T06:46:43;11.43;;;1.95;;
69226;SDS011;56334;52.398;7.552;2023-04-25T06:49:10;11.52;;;1.98;;
69226;SDS011;56334;52.398;7.552;2023-04-25T06:51:37;9.32;;;1.75;;
69226;SDS011;56334;52.398;7.552;2023-04-25T06:54:03;9.45;;;2.03;;
69226;SDS011;56334;52.398;7.552;2023-04-25T06:56:30;11.88;;;2.30;;
69226;SDS011;56334;52.398;7.552;2023-04-25T06:58:56;12.38;;;2.15;;
69226;SDS011;56334;52.398;7.552;2023-04-25T07:01:22;10.13;;;2.20;;
69226;SDS011;56334;52.398;7.552;2023-04-25T07:03:48;10.57;;;1.75;;
69226;SDS011;56334;52.398;7.552;2023-04-25T07:06:14;8.85;;;1.70;;
69226;SDS011;56334;52.398;7.552;2023-04-25T07:08:40;6.63;;;1.60;;
69226;SDS011;56334;52.398;7.552;2023-04-25T07:11:06;10.57;;;1.83;;
69226;SDS011;56334;52.398;7.552;2023-04-25T07:13:32;10.00;;;1.83;;
69226;SDS011;56334;52.398;7.552;2023-04-25T07:15:59;10.05;;;1.60;;
69226;SDS011;56334;52.398;7.552;2023-04-25T07:18:25;9.20;;;1.85;;
69226;SDS011;56334;52.398;7.552;2023-04-25T07:20:51;7.20;;;1.50;;
69226;SDS011;56334;52.398;7.552;2023-04-25T07:23:17;8.98;;;1.63;;
69226;SDS011;56334;52.398;7.552;2023-04-25T07:25:43;12.68;;;2.25;;
69226;SDS011;56334;52.398;7.552;2023-04-25T07:28:09;9.80;;;1.80;;
69226;SDS011;56334;52.398;7.552;2023-04-25T07:30:35;11.30;;;1.80;;
69226;SDS011;56334;52.398;7.552;2023-04-25T07:33:01;10.02;;;1.90;;
69226;SDS011;56334;52.398;7.552;2023-04-25T07:35:28;10.90;;;3.03;;
69226;SDS011;56334;52.398;7.552;2023-04-25T07:37:54;9.55;;;1.95;;
69226;SDS011;56334;52.398;7.552;2023-04-25T07:40:20;10.05;;;1.80;;
69226;SDS011;56334;52.398;7.552;2023-04-25T07:42:46;5.22;;;0.95;;
69226;SDS011;56334;52.398;7.552;2023-04-25T07:45:12;7.22;;;1.38;;
69226;SDS011;56334;52.398;7.552;2023-04-25T07:47:38;12.75;;;2.00;;
69226;SDS011;56334;52.398;7.552;2023-04-25T07:50:05;9.07;;;2.08;;
69226;SDS011;56334;52.398;7.552;2023-04-25T07:52:31;11.10;;;2.15;;
69226;SDS011;56334;52.398;7.552;2023-04-25T07:54:57;6.45;;;1.42;;
69226;SDS011;56334;52.398;7.552;2023-04-25T07:57:23;8.50;;;1.50;;
69226;SDS011;56334;52.398;7.552;2023-04-25T07:59:50;6.43;;;1.50;;
69226;SDS011;56334;52.398;7.552;2023-04-25T08:02:16;10.07;;;1.80;;
69226;SDS011;56334;52.398;7.552;2023-04-25T08:04:42;6.53;;;2.05;;
69226;SDS011;56334;52.398;7.552;2023-04-25T08:07:08;9.25;;;1.60;;
69226;SDS011;56334;52.398;7.552;2023-04-25T08:09:34;9.50;;;1.58;;
69226;SDS011;56334;52.398;7.552;2023-04-25T08:12:01;9.27;;;2.00;;
69226;SDS011;56334;52.398;7.552;2023-04-25T08:14:28;4.55;;;1.05;;
69226;SDS011;56334;52.398;7.552;2023-04-25T08:16:56;5.95;;;1.52;;
69226;SDS011;56334;52.398;7.552;2023-04-25T08:19:22;8.85;;;1.63;;
69226;SDS011;56334;52.398;7.552;2023-04-25T08:21:48;10.32;;;1.45;;
69226;SDS011;56334;52.398;7.552;2023-04-25T08:24:16;8.80;;;1.85;;
69226;SDS011;56334;52.398;7.552;2023-04-25T08:26:42;9.05;;;1.90;;
69226;SDS011;56334;52.398;7.552;2023-04-25T08:29:08;10.27;;;1.70;;
69226;SDS011;56334;52.398;7.552;2023-04-25T08:31:34;7.32;;;1.40;;
69226;SDS011;56334;52.398;7.552;2023-04-25T08:34:00;9.63;;;1.77;;
69226;SDS011;56334;52.398;7.552;2023-04-25T08:36:27;8.48;;;1.60;;
69226;SDS011;56334;52.398;7.552;2023-04-25T08:38:53;7.72;;;1.30;;
69226;SDS011;56334;52.398;7.552;2023-04-25T08:41:19;7.15;;;1.48;;
69226;SDS011;56334;52.398;7.552;2023-04-25T08:43:47;9.45;;;1.63;;
69226;SDS011;56334;52.398;7.552;2023-04-25T08:46:15;7.90;;;1.90;;
69226;SDS011;56334;52.398;7.552;2023-04-25T08:48:43;6.22;;;1.30;;
69226;SDS011;56334;52.398;7.552;2023-04-25T08:51:10;9.15;;;1.50;;
69226;SDS011;56334;52.398;7.552;2023-04-25T08:53:41;7.63;;;1.60;;
69226;SDS011;56334;52.398;7.552;2023-04-25T08:56:07;7.28;;;1.60;;
69226;SDS011;56334;52.398;7.552;2023-04-25T08:58:38;7.68;;;1.48;;
69226;SDS011;56334;52.398;7.552;2023-04-25T09:01:04;9.23;;;1.40;;
69226;SDS011;56334;52.398;7.552;2023-04-25T09:03:30;8.15;;;1.40;;
69226;SDS011;56334;52.398;7.552;2023-04-25T09:05:56;12.27;;;1.50;;
69226;SDS011;56334;52.398;7.552;2023-04-25T09:08:23;10.23;;;1.67;;
69226;SDS011;56334;52.398;7.552;2023-04-25T09:10:49;7.45;;;1.35;;
69226;SDS011;56334;52.398;7.552;2023-04-25T09:13:20;8.07;;;1.45;;
69226;SDS011;56334;52.398;7.552;2023-04-25T09:15:53;8.05;;;1.40;;
69226;SDS011;56334;52.398;7.552;2023-04-25T09:18:23;9.07;;;2.25;;
69226;SDS011;56334;52.398;7.552;2023-04-25T09:21:25;8.50;;;1.23;;
69226;SDS011;56334;52.398;7.552;2023-04-25T09:23:49;6.95;;;1.55;;
69226;SDS011;56334;52.398;7.552;2023-04-25T09:26:17;7.35;;;1.15;;
69226;SDS011;56334;52.398;7.552;2023-04-25T09:28:44;6.90;;;1.40;;
69226;SDS011;56334;52.398;7.552;2023-04-25T09:31:11;8.43;;;1.73;;
69226;SDS011;56334;52.398;7.552;2023-04-25T09:36:11;9.27;;;1.67;;
69226;SDS011;56334;52.398;7.552;2023-04-25T09:38:42;8.00;;;1.63;;
69226;SDS011;56334;52.398;7.552;2023-04-25T09:41:09;7.25;;;1.70;;
69226;SDS011;56334;52.398;7.552;2023-04-25T12:29:23;3.65;;;1.00;;
69226;SDS011;56334;52.398;7.552;2023-04-25T12:31:50;5.55;;;1.13;;
69226;SDS011;56334;52.398;7.552;2023-04-25T12:34:17;7.60;;;1.60;;
69226;SDS011;56334;52.398;7.552;2023-04-25T12:36:43;7.00;;;1.55;;
69226;SDS011;56334;52.398;7.552;2023-04-25T12:39:16;7.63;;;1.55;;
69226;SDS011;56334;52.398;7.552;2023-04-25T12:42:00;4.75;;;1.10;;
69226;SDS011;56334;52.398;7.552;2023-04-25T12:44:27;5.55;;;1.13;;
69226;SDS011;56334;52.398;7.552;2023-04-25T12:46:53;8.45;;;1.80;;
69226;SDS011;56334;52.398;7.552;2023-04-25T12:49:19;6.63;;;1.20;;
69226;SDS011;56334;52.398;7.552;2023-04-25T12:51:46;5.95;;;1.10;;
69226;SDS011;56334;52.398;7.552;2023-04-25T12:54:12;7.43;;;1.35;;
69226;SDS011;56334;52.398;7.552;2023-04-25T12:56:39;4.85;;;1.20;;
69226;SDS011;56334;52.398;7.552;2023-04-25T12:59:06;6.38;;;1.50;;
69226;SDS011;56334;52.398;7.552;2023-04-25T13:01:32;7.88;;;1.40;;
69226;SDS011;56334;52.398;7.552;2023-04-25T13:03:59;8.95;;;1.10;;
69226;SDS011;56334;52.398;7.552;2023-04-25T13:06:25;6.97;;;1.40;;
69226;SDS011;56334;52.398;7.552;2023-04-25T13:08:52;8.60;;;1.20;;
69226;SDS011;56334;52.398;7.552;2023-04-25T13:11:18;8.20;;;1.60;;
69226;SDS011;56334;52.398;7.552;2023-04-25T13:13:44;7.30;;;1.50;;
69226;SDS011;56334;52.398;7.552;2023-04-25T13:16:10;7.32;;;1.40;;
69226;SDS011;56334;52.398;7.552;2023-04-25T13:18:39;7.95;;;1.60;;
69226;SDS011;56334;52.398;7.552;2023-04-25T13:21:05;5.63;;;1.38;;
69226;SDS011;56334;52.398;7.552;2023-04-25T13:23:31;4.07;;;1.02;;
69226;SDS011;56334;52.398;7.552;2023-04-25T13:25:57;5.30;;;1.05;;
69226;SDS011;56334;52.398;7.552;2023-04-25T13:28:26;4.20;;;1.00;;
69226;SDS011;56334;52.398;7.552;2023-04-25T13:30:52;6.00;;;1.10;;
69226;SDS011;56334;52.398;7.552;2023-04-25T13:33:19;5.75;;;1.20;;
69226;SDS011;56334;52.398;7.552;2023-04-25T13:35:46;6.25;;;1.20;;
69226;SDS011;56334;52.398;7.552;2023-04-25T13:38:19;8.88;;;1.35;;
69226;SDS011;56334;52.398;7.552;2023-04-25T13:40:45;6.63;;;1.60;;
69226;SDS011;56334;52.398;7.552;2023-04-25T13:43:11;6.97;;;1.70;;
69226;SDS011;56334;52.398;7.552;2023-04-25T13:45:37;5.80;;;1.88;;
69226;SDS011;56334;52.398;7.552;2023-04-25T13:48:03;5.78;;;1.15;;
69226;SDS011;56334;52.398;7.552;2023-04-25T13:50:29;10.18;;;1.92;;
69226;SDS011;56334;52.398;7.552;2023-04-25T13:52:55;8.23;;;1.42;;
69226;SDS011;56334;52.398;7.552;2023-04-25T13:55:21;5.15;;;1.02;;
69226;SDS011;56334;52.398;7.552;2023-04-25T13:57:47;8.65;;;1.10;;
69226;SDS011;56334;52.398;7.552;2023-04-25T14:00:13;5.20;;;1.10;;
69226;SDS011;56334;52.398;7.552;2023-04-25T14:02:39;8.82;;;1.83;;
69226;SDS011;56334;52.398;7.552;2023-04-25T14:05:06;5.60;;;1.40;;
69226;SDS011;56334;52.398;7.552;2023-04-25T14:07:36;6.82;;;1.40;;
69226;SDS011;56334;52.398;7.552;2023-04-25T14:10:02;4.72;;;1.02;;
69226;SDS011;56334;52.398;7.552;2023-04-25T14:12:29;5.57;;;1.25;;
69226;SDS011;56334;52.398;7.552;2023-04-25T14:14:55;7.45;;;1.42;;
69226;SDS011;56334;52.398;7.552;2023-04-25T14:17:21;4.65;;;1.20;;
69226;SDS011;56334;52.398;7.552;2023-04-25T14:19:49;6.05;;;1.20;;
69226;SDS011;56334;52.398;7.552;2023-04-25T14:22:15;10.65;;;1.90;;
69226;SDS011;56334;52.398;7.552;2023-04-25T14:24:41;4.88;;;1.05;;
69226;SDS011;56334;52.398;7.552;2023-04-25T14:27:08;6.85;;;1.55;;
69226;SDS011;56334;52.398;7.552;2023-04-25T14:29:34;5.43;;;1.30;;
69226;SDS011;56334;52.398;7.552;2023-04-25T14:32:00;6.22;;;1.20;;
69226;SDS011;56334;52.398;7.552;2023-04-25T14:34:26;4.53;;;1.10;;
69226;SDS011;56334;52.398;7.552;2023-04-25T14:36:53;6.15;;;1.10;;
69226;SDS011;56334;52.398;7.552;2023-04-25T14:39:19;4.68;;;1.08;;
69226;SDS011;56334;52.398;7.552;2023-04-25T14:41:45;3.60;;;0.80;;
69226;SDS011;56334;52.398;7.552;2023-04-25T14:44:11;4.40;;;0.95;;
69226;SDS011;56334;52.398;7.552;2023-04-25T14:46:37;5.45;;;0.88;;
69226;SDS011;56334;52.398;7.552;2023-04-25T14:49:03;5.35;;;1.10;;
69226;SDS011;56334;52.398;7.552;2023-04-25T14:51:29;6.07;;;1.17;;
69226;SDS011;56334;52.398;7.552;2023-04-25T14:53:55;6.05;;;1.15;;
69226;SDS011;56334;52.398;7.552;2023-04-25T14:56:22;4.28;;;1.08;;
69226;SDS011;56334;52.398;7.552;2023-04-25T14:58:48;6.10;;;1.42;;
69226;SDS011;56334;52.398;7.552;2023-04-25T15:01:14;4.13;;;0.80;;
69226;SDS011;56334;52.398;7.552;2023-04-25T15:03:41;5.63;;;1.40;;
69226;SDS011;56334;52.398;7.552;2023-04-25T15:06:07;6.25;;;1.20;;
69226;SDS011;56334;52.398;7.552;2023-04-25T15:08:33;5.38;;;1.42;;
69226;SDS011;56334;52.398;7.552;2023-04-25T15:10:59;7.18;;;1.10;;
69226;SDS011;56334;52.398;7.552;2023-04-25T15:13:27;8.15;;;1.30;;
69226;SDS011;56334;52.398;7.552;2023-04-25T15:15:53;5.28;;;0.90;;
69226;SDS011;56334;52.398;7.552;2023-04-25T15:18:20;6.68;;;1.30;;
69226;SDS011;56334;52.398;7.552;2023-04-25T15:20:47;9.27;;;1.40;;
69226;SDS011;56334;52.398;7.552;2023-04-25T15:23:13;4.90;;;1.20;;
69226;SDS011;56334;52.398;7.552;2023-04-25T15:25:39;5.85;;;1.40;;
69226;SDS011;56334;52.398;7.552;2023-04-25T15:28:05;3.35;;;0.88;;
69226;SDS011;56334;52.398;7.552;2023-04-25T15:30:31;7.75;;;1.35;;
69226;SDS011;56334;52.398;7.552;2023-04-25T15:32:58;7.35;;;1.30;;
69226;SDS011;56334;52.398;7.552;2023-04-25T15:35:24;5.97;;;1.27;;
69226;SDS011;56334;52.398;7.552;2023-04-25T15:37:50;6.25;;;1.27;;
69226;SDS011;56334;52.398;7.552;2023-04-25T15:40:16;5.40;;;1.40;;
69226;SDS011;56334;52.398;7.552;2023-04-25T15:42:46;4.97;;;0.93;;
69226;SDS011;56334;52.398;7.552;2023-04-25T15:45:16;7.72;;;1.30;;
69226;SDS011;56334;52.398;7.552;2023-04-25T15:50:19;4.85;;;1.10;;
69226;SDS011;56334;52.398;7.552;2023-04-25T15:52:45;3.55;;;0.80;;
69226;SDS011;56334;52.398;7.552;2023-04-25T15:55:13;6.68;;;1.45;;
69226;SDS011;56334;52.398;7.552;2023-04-25T15:57:40;4.57;;;1.10;;
69226;SDS011;56334;52.398;7.552;2023-04-25T16:00:15;5.60;;;1.30;;
69226;SDS011;56334;52.398;7.552;2023-04-25T16:02:42;5.40;;;1.20;;
69226;SDS011;56334;52.398;7.552;2023-04-25T16:05:08;7.55;;;1.13;;
69226;SDS011;56334;52.398;7.552;2023-04-25T16:07:35;5.82;;;1.10;;
69226;SDS011;56334;52.398;7.552;2023-04-25T16:10:02;5.70;;;1.10;;
69226;SDS011;56334;52.398;7.552;2023-04-25T16:12:28;7.68;;;1.33;;
69226;SDS011;56334;52.398;7.552;2023-04-25T16:14:55;4.38;;;1.02;;
69226;SDS011;56334;52.398;7.552;2023-04-25T16:17:25;4.07;;;1.00;;
69226;SDS011;56334;52.398;7.552;2023-04-25T16:19:54;6.70;;;1.50;;
69226;SDS011;56334;52.398;7.552;2023-04-25T16:22:20;4.65;;;1.15;;
69226;SDS011;56334;52.398;7.552;2023-04-25T16:24:47;6.38;;;1.45;;
69226;SDS011;56334;52.398;7.552;2023-04-25T16:27:13;7.07;;;1.40;;
69226;SDS011;56334;52.398;7.552;2023-04-25T16:29:39;5.53;;;1.40;;
69226;SDS011;56334;52.398;7.552;2023-04-25T16:34:32;6.15;;;1.02;;
69226;SDS011;56334;52.398;7.552;2023-04-25T16:36:58;6.93;;;1.58;;
69226;SDS011;56334;52.398;7.552;2023-04-25T16:39:25;5.25;;;1.20;;
69226;SDS011;56334;52.398;7.552;2023-04-25T16:41:51;8.20;;;1.63;;
69226;SDS011;56334;52.398;7.552;2023-04-25T16:44:17;5.93;;;1.33;;
69226;SDS011;56334;52.398;7.552;2023-04-25T16:46:43;5.65;;;1.30;;
69226;SDS011;56334;52.398;7.552;2023-04-25T16:49:09;7.10;;;1.13;;
69226;SDS011;56334;52.398;7.552;2023-04-25T16:51:35;6.40;;;1.55;;
69226;SDS011;56334;52.398;7.552;2023-04-25T16:54:02;8.15;;;1.40;;
69226;SDS011;56334;52.398;7.552;2023-04-25T16:56:28;6.63;;;1.30;;
69226;SDS011;56334;52.398;7.552;2023-04-25T16:58:54;10.68;;;1.95;;
69226;SDS011;56334;52.398;7.552;2023-04-25T17:01:20;6.82;;;1.40;;
69226;SDS011;56334;52.398;7.552;2023-04-25T17:03:46;7.30;;;1.58;;
69226;SDS011;56334;52.398;7.552;2023-04-25T17:06:13;9.10;;;1.20;;
69226;SDS011;56334;52.398;7.552;2023-04-25T17:08:39;6.97;;;1.40;;
69226;SDS011;56334;52.398;7.552;2023-04-25T17:11:07;5.65;;;1.13;;
69226;SDS011;56334;52.398;7.552;2023-04-25T17:13:34;7.35;;;1.40;;
69226;SDS011;56334;52.398;7.552;2023-04-25T17:16:00;10.75;;;1.52;;
69226;SDS011;56334;52.398;7.552;2023-04-25T17:18:27;7.68;;;1.63;;
69226;SDS011;56334;52.398;7.552;2023-04-25T17:20:54;7.75;;;1.83;;
69226;SDS011;56334;52.398;7.552;2023-04-25T17:23:20;7.72;;;1.48;;
69226;SDS011;56334;52.398;7.552;2023-04-25T17:25:46;6.47;;;1.65;;
69226;SDS011;56334;52.398;7.552;2023-04-25T17:28:12;6.03;;;1.30;;
69226;SDS011;56334;52.398;7.552;2023-04-25T17:30:38;6.53;;;1.30;;
69226;SDS011;56334;52.398;7.552;2023-04-25T17:33:06;8.30;;;1.50;;